»·PEaware :: SKY171 KTOA-KVNY

SKY171 :: KTOA-KVNY

FLIGHT INFORMATION

Flight Status: Arrived
Operator:
Sky High Charters
More flights by this operator :: More flights under this callsign
Pilot: Tim M. (868)
Aircraft: SOCATA TBM-900
(TBM9)
More flights by this aircraft type
Origin: KTOA Zamperini
United States
Destination: KVNY Van Nuys
United States
More flights between these airports :: More routes between these airports
Route: +LAX170 LIMBO V64 SMO125 SMO SMO317 CANOG
File this flight plan on PilotEdge
Remarks: SKY #1
Altitude:
(Current/Filed)
5,000ft
Speed:
(Current/Filed)
210kts
Departed: 29-Nov-19 09:15 PM
Arrived: 29-Nov-19 10:13 PM
Distance/Time
Traveled:
25nm/0:58
Distance/Time
To Go:
Arrived

Flight Plot

Page will automatically refresh every two minutes.


Map Options




Map Legend


Flown Route
Filed Route
Departure Airport
Arrival Airport
Navaid (VOR, NDB)
Fix

Horizontal Profiles

Position Reports

Time Latitude Longitude Heading Altitude Ground
Speed
29-Nov-19 20:38 33.801601 -118.341420 218 101ft 0kts
29-Nov-19 20:39 33.801601 -118.341420 218 101ft 0kts
29-Nov-19 20:40 33.801601 -118.341420 218 101ft 0kts
29-Nov-19 20:41 33.801601 -118.341420 218 101ft 0kts
29-Nov-19 20:42 33.801601 -118.341420 218 101ft 0kts
29-Nov-19 20:43 33.801601 -118.341420 218 101ft 0kts
29-Nov-19 20:44 33.801601 -118.341420 218 101ft 0kts
29-Nov-19 20:45 33.801601 -118.341420 218 101ft 0kts
29-Nov-19 20:46 33.801601 -118.341420 218 101ft 0kts
29-Nov-19 20:47 33.801601 -118.341420 218 101ft 0kts
29-Nov-19 20:48 33.801600 -118.341421 218 101ft 0kts
29-Nov-19 20:49 33.801600 -118.341421 218 101ft 0kts
29-Nov-19 20:50 33.801600 -118.341421 218 101ft 0kts
29-Nov-19 20:51 33.801600 -118.341421 218 101ft 0kts
29-Nov-19 20:52 33.801600 -118.341421 218 101ft 0kts
29-Nov-19 20:53 33.801600 -118.341421 218 101ft 0kts
29-Nov-19 20:54 33.801600 -118.341421 218 101ft 0kts
29-Nov-19 20:55 33.801600 -118.341421 218 101ft 0kts
29-Nov-19 20:56 33.801600 -118.341421 218 101ft 0kts
29-Nov-19 20:57 33.801600 -118.341421 218 101ft 0kts
29-Nov-19 20:58 33.801600 -118.341421 218 101ft 0kts
29-Nov-19 20:59 33.801600 -118.341421 218 101ft 0kts
29-Nov-19 21:00 33.801600 -118.341421 218 101ft 0kts
29-Nov-19 21:01 33.801600 -118.341421 218 101ft 0kts
29-Nov-19 21:02 33.801600 -118.341421 218 101ft 0kts
29-Nov-19 21:03 33.801600 -118.341421 218 101ft 0kts
29-Nov-19 21:04 33.801600 -118.341421 218 101ft 0kts
29-Nov-19 21:05 33.801600 -118.341421 218 101ft 0kts
29-Nov-19 21:06 33.801600 -118.341421 218 101ft 0kts
29-Nov-19 21:07 33.801600 -118.341421 218 101ft 0kts
29-Nov-19 21:08 33.801600 -118.341421 218 101ft 0kts
29-Nov-19 21:09 33.801600 -118.341421 218 101ft 0kts
29-Nov-19 21:10 33.800644 -118.340241 129 101ft 6kts
29-Nov-19 21:11 33.800003 -118.337508 127 101ft 14kts
29-Nov-19 21:12 33.798212 -118.334792 129 101ft 9kts
29-Nov-19 21:13 33.799106 -118.333275 39 101ft 0kts
29-Nov-19 21:14 33.805230 -118.340786 309 371ft 110kts
29-Nov-19 21:15 33.830340 -118.373508 307 2178ft 126kts
29-Nov-19 21:16 33.853943 -118.405387 308 4032ft 147kts
29-Nov-19 21:17 33.884529 -118.447075 308 5030ft 187kts
29-Nov-19 21:18 33.919290 -118.496598 292 4993ft 193kts
29-Nov-19 21:19 33.880547 -118.509531 156 5012ft 223kts
29-Nov-19 21:20 33.823052 -118.480781 163 5007ft 223kts
29-Nov-19 21:21 33.766108 -118.450543 135 4978ft 231kts
29-Nov-19 21:22 33.764223 -118.374060 84 5008ft 234kts
29-Nov-19 21:23 33.768938 -118.296454 84 5007ft 234kts
29-Nov-19 21:24 33.792182 -118.232844 358 4976ft 214kts
29-Nov-19 21:25 33.830112 -118.276116 319 5024ft 197kts
29-Nov-19 21:26 33.871760 -118.318427 315 5007ft 198kts
29-Nov-19 21:27 33.914099 -118.360120 314 5008ft 198kts
29-Nov-19 21:28 33.956094 -118.403850 316 5006ft 198kts
29-Nov-19 21:29 33.998976 -118.445881 317 5006ft 199kts
29-Nov-19 21:30 34.046537 -118.480695 326 5007ft 202kts
29-Nov-19 21:31 34.096099 -118.513405 327 5005ft 202kts
29-Nov-19 21:32 34.144268 -118.544526 327 4997ft 202kts
29-Nov-19 21:33 34.193745 -118.576261 328 4989ft 203kts
29-Nov-19 21:34 34.241680 -118.597335 357 4975ft 174kts
29-Nov-19 21:36 34.288406 -118.594023 357 4977ft 164kts
29-Nov-19 21:37 34.333640 -118.591198 357 4977ft 162kts
29-Nov-19 21:38 34.378899 -118.588581 357 4979ft 162kts
29-Nov-19 21:39 34.424838 -118.585293 357 4993ft 170kts
29-Nov-19 21:40 34.473085 -118.582357 357 4989ft 175kts
29-Nov-19 21:41 34.518783 -118.568799 62 5128ft 185kts
29-Nov-19 21:42 34.518854 -118.507325 92 5174ft 163kts
29-Nov-19 21:43 34.510789 -118.452950 147 5206ft 181kts
29-Nov-19 21:44 34.483902 -118.474871 252 5187ft 129kts
29-Nov-19 21:45 34.457222 -118.500355 202 5189ft 138kts
29-Nov-19 21:46 34.419117 -118.510855 187 5197ft 154kts
29-Nov-19 21:47 34.377430 -118.506190 184 4945ft 122kts
29-Nov-19 21:48 34.342612 -118.502925 182 4059ft 128kts
29-Nov-19 21:49 34.310255 -118.499901 182 3294ft 120kts
29-Nov-19 21:50 34.279362 -118.496965 177 2471ft 108kts
29-Nov-19 21:51 34.249234 -118.494109 175 1729ft 112kts
29-Nov-19 21:52 34.218215 -118.491121 175 1389ft 120kts
29-Nov-19 21:53 34.182158 -118.480292 145 2079ft 153kts
29-Nov-19 21:53 34.148931 -118.470328 171 3222ft 150kts
29-Nov-19 21:55 34.097507 -118.457110 174 4638ft 170kts
29-Nov-19 21:56 34.048657 -118.456160 190 4524ft 177kts
29-Nov-19 21:56 34.016213 -118.465558 256 4521ft 124kts
29-Nov-19 21:58 34.019574 -118.509152 278 4519ft 106kts
29-Nov-19 21:59 34.026221 -118.552269 280 4655ft 169kts
29-Nov-19 21:59 34.034495 -118.601200 281 4620ft 182kts
29-Nov-19 22:00 34.044999 -118.661252 281 4620ft 185kts
29-Nov-19 22:02 34.057510 -118.732606 281 4619ft 186kts
29-Nov-19 22:02 34.080823 -118.769573 0 4623ft 200kts
29-Nov-19 22:03 34.136431 -118.761581 1 4612ft 203kts
29-Nov-19 22:04 34.188882 -118.747990 47 4560ft 179kts
29-Nov-19 22:05 34.196025 -118.697982 81 4596ft 141kts
29-Nov-19 22:06 34.200300 -118.650566 81 3580ft 135kts
29-Nov-19 22:07 34.201224 -118.602035 89 3401ft 150kts
29-Nov-19 22:08 34.200387 -118.548510 90 2177ft 141kts
29-Nov-19 22:09 34.217516 -118.521584 5 1769ft 118kts
29-Nov-19 22:10 34.237222 -118.502966 91 1603ft 99kts
29-Nov-19 22:11 34.219666 -118.490061 180 858ft 87kts
29-Nov-19 22:12 34.210286 -118.488551 96 805ft 0kts
29-Nov-19 22:13 34.209960 -118.487515 267 805ft 2kts
29-Nov-19 22:14 34.209957 -118.487627 268 805ft 0kts

Navigation Log

Ident Type
Flight plan parsing failed, navigation log unavailable